Terminal Aerodrome Forecast
Issued by NWS

Home | Current Version | Previous Version | Graphics & Text | Print | Product List | Glossary On
Versions: 1 2 3 4 5 6 7 8 9 10 11 12 13 14 15 16 17 18 19 20
000
FTUS43 KBIS 130440 AAA
TAFDIK
TAF AMD
KDIK 130440Z 1305/1324 30025G35KT P6SM BKN100 WS020/30050KT
     FM130800 31027G37KT P6SM SCT250
     FM131600 31027G37KT P6SM OVC015
     FM132000 32027G37KT P6SM OVC035
     FM132200 32017G25KT P6SM BKN070=

USA.gov is the U.S. government's official web portal to all federal, state and local government web resources and services.